X  Stänga Metar väderdata för luftfart     EIDW Dublin Airport
Temperatur
17°C Temperatur
9°C Daggpunkt
59% Fuktighet



Vind
19 KM/T
12 MPH
5 M/S
10 KTS



250°
VSV
Nuvarande omständigheter

Delvis molnigt Delvis molnigt
Tryck 1019.92 (hPa) - 30.12 (inHg)
Synlighet 6.2 (mil) - 10 (km)
Flygplats
Flygplatskod EIDW

Plats: Dublin Airport
Distans: 17 (km)

Metar:
EIDW 031400Z 25010KT 190V290 9999 FEW016 BKN040 17/09 Q1020 NOSIG

Tid: 03-07-2022 15:00 IST